createdAt,value
2023-06-19T00:00:58.314Z,92758.00
2023-06-19T00:01:58.300Z,92760.00
2023-06-19T00:02:58.462Z,92758.00
2023-06-19T00:03:58.547Z,92762.00
2023-06-19T00:04:58.516Z,92760.00
2023-06-19T00:05:58.611Z,92762.00
2023-06-19T00:06:58.753Z,92760.00
2023-06-19T00:07:58.778Z,92758.00
2023-06-19T00:08:58.866Z,92762.00
2023-06-19T00:09:58.976Z,92764.00
2023-06-19T00:10:58.997Z,92760.00
2023-06-19T00:11:59.109Z,92758.00
2023-06-19T00:12:59.188Z,92766.00
2023-06-19T00:13:59.842Z,92760.00
2023-06-19T00:14:59.401Z,92764.00
2023-06-19T00:15:59.485Z,92760.00
2023-06-19T00:16:59.549Z,92768.00
2023-06-19T00:17:59.827Z,92768.00
2023-06-19T00:18:59.696Z,92770.00
2023-06-19T00:19:59.849Z,92768.00
2023-06-19T00:20:59.921Z,92768.00
2023-06-19T00:21:59.980Z,92764.00
2023-06-19T00:23:00.049Z,92764.00
2023-06-19T00:24:00.140Z,92762.00
2023-06-19T00:25:00.277Z,92758.00
2023-06-19T00:26:00.275Z,92760.00
2023-06-19T00:27:00.360Z,92762.00
2023-06-19T00:28:00.446Z,92760.00
2023-06-19T00:29:00.506Z,92766.00
2023-06-19T00:30:00.577Z,92762.00
2023-06-19T00:31:01.332Z,92762.00
2023-06-19T00:32:00.855Z,92766.00
2023-06-19T00:33:00.931Z,92764.00
2023-06-19T00:34:00.999Z,92762.00
2023-06-19T00:35:01.107Z,92762.00
2023-06-19T00:36:01.180Z,92760.00
2023-06-19T00:37:01.292Z,92756.00
2023-06-19T00:38:01.366Z,92754.00
2023-06-19T00:39:01.467Z,92758.00
2023-06-19T00:40:01.555Z,92756.00
2023-06-19T00:41:01.622Z,92754.00
2023-06-19T00:42:01.841Z,92756.00
2023-06-19T00:43:01.860Z,92756.00
2023-06-19T00:44:01.952Z,92752.00
2023-06-19T00:45:02.042Z,92750.00
2023-06-19T00:46:02.195Z,92750.00
2023-06-19T00:47:02.230Z,92752.00
2023-06-19T00:48:02.466Z,92750.00
2023-06-19T00:49:02.401Z,92748.00
2023-06-19T00:50:02.526Z,92750.00
2023-06-19T00:51:02.600Z,92750.00
2023-06-19T00:52:02.696Z,92756.00
2023-06-19T00:53:02.796Z,92758.00
2023-06-19T00:54:02.892Z,92760.00
2023-06-19T00:55:02.993Z,92760.00
2023-06-19T00:56:03.095Z,92762.00
2023-06-19T00:57:03.204Z,92766.00
2023-06-19T00:58:03.424Z,92770.00
2023-06-19T00:59:03.402Z,92764.00
2023-06-19T01:00:03.504Z,92768.00
2023-06-19T01:01:08.693Z,92770.00
2023-06-19T01:02:04.704Z,92770.00
2023-06-19T01:03:03.766Z,92772.00
2023-06-19T01:04:03.932Z,92774.00
2023-06-19T01:05:03.851Z,92776.00
2023-06-19T01:06:03.910Z,92774.00
2023-06-19T01:07:03.963Z,92776.00
2023-06-19T01:08:04.047Z,92778.00
2023-06-19T01:09:04.075Z,92776.00
2023-06-19T01:10:04.156Z,92776.00
2023-06-19T01:11:11.814Z,92774.00
2023-06-19T01:12:05.281Z,92774.00
2023-06-19T01:13:04.344Z,92774.00
2023-06-19T01:14:04.403Z,92772.00
2023-06-19T01:15:04.479Z,92772.00
2023-06-19T01:16:04.551Z,92772.00
2023-06-19T01:17:04.652Z,92770.00
2023-06-19T01:18:04.821Z,92774.00
2023-06-19T01:19:04.765Z,92774.00
2023-06-19T01:20:04.845Z,92772.00
2023-06-19T01:21:04.914Z,92774.00
2023-06-19T01:22:05.353Z,92774.00
2023-06-19T01:23:05.070Z,92774.00
2023-06-19T01:24:05.347Z,92778.00
2023-06-19T01:25:05.315Z,92778.00
2023-06-19T01:26:05.445Z,92776.00
2023-06-19T01:27:05.551Z,92778.00
2023-06-19T01:28:05.685Z,92776.00
2023-06-19T01:29:05.849Z,92778.00
2023-06-19T01:30:05.908Z,92776.00
2023-06-19T01:31:06.022Z,92776.00
2023-06-19T01:32:06.347Z,92784.00
2023-06-19T01:33:06.353Z,92784.00
2023-06-19T01:34:06.399Z,92787.00
2023-06-19T01:35:06.533Z,92787.00
2023-06-19T01:36:06.674Z,92787.00
2023-06-19T01:37:06.807Z,92787.00
2023-06-19T01:38:06.946Z,92791.00
2023-06-19T01:39:07.078Z,92791.00
2023-06-19T01:40:07.206Z,92789.00
2023-06-19T01:41:07.321Z,92791.00
2023-06-19T01:42:07.437Z,92791.00
2023-06-19T01:43:07.560Z,92789.00
2023-06-19T01:44:07.693Z,92789.00
2023-06-19T01:45:07.834Z,92789.00
2023-06-19T01:46:07.985Z,92791.00
2023-06-19T01:47:08.051Z,92793.00
2023-06-19T01:48:08.206Z,92795.00
2023-06-19T01:49:08.299Z,92797.00
2023-06-19T01:50:09.367Z,92799.00
2023-06-19T01:51:08.616Z,92801.00
2023-06-19T01:52:08.856Z,92797.00
2023-06-19T01:53:08.769Z,92795.00
2023-06-19T01:54:08.874Z,92797.00
2023-06-19T01:55:08.981Z,92795.00
2023-06-19T01:56:09.093Z,92793.00
2023-06-19T01:57:09.214Z,92793.00
2023-06-19T01:58:09.324Z,92793.00
2023-06-19T01:59:09.439Z,92791.00
2023-06-19T02:00:09.572Z,92791.00
2023-06-19T02:01:09.679Z,92793.00
2023-06-19T02:02:09.839Z,92789.00
2023-06-19T02:03:10.049Z,92793.00
2023-06-19T02:04:10.073Z,92795.00
2023-06-19T02:05:10.193Z,92795.00
2023-06-19T02:06:10.319Z,92795.00
2023-06-19T02:07:10.471Z,92795.00
2023-06-19T02:08:10.585Z,92793.00
2023-06-19T02:09:11.365Z,92793.00
2023-06-19T02:10:10.910Z,92793.00
2023-06-19T02:11:10.980Z,92797.00
2023-06-19T02:12:11.117Z,92799.00
2023-06-19T02:13:11.257Z,92797.00
2023-06-19T02:14:11.374Z,92797.00
2023-06-19T02:15:11.581Z,92801.00
2023-06-19T02:16:11.673Z,92791.00
2023-06-19T02:17:11.769Z,92795.00
2023-06-19T02:18:11.885Z,92799.00
2023-06-19T02:19:12.034Z,92801.00
2023-06-19T02:20:12.192Z,92801.00
2023-06-19T02:21:12.331Z,92799.00
2023-06-19T02:22:12.477Z,92803.00
2023-06-19T02:23:12.628Z,92801.00
2023-06-19T02:24:12.784Z,92801.00
2023-06-19T02:25:12.905Z,92803.00
2023-06-19T02:26:13.042Z,92803.00
2023-06-19T02:27:13.186Z,92809.00
2023-06-19T02:28:13.330Z,92811.00
2023-06-19T02:29:13.516Z,92811.00
2023-06-19T02:30:13.609Z,92813.00
2023-06-19T02:31:13.740Z,92811.00
2023-06-19T02:32:13.879Z,92807.00
2023-06-19T02:33:14.000Z,92807.00
2023-06-19T02:34:14.134Z,92807.00
2023-06-19T02:35:14.260Z,92807.00
2023-06-19T02:36:14.385Z,92807.00
2023-06-19T02:37:14.531Z,92807.00
2023-06-19T02:38:14.655Z,92807.00
2023-06-19T02:39:14.848Z,92805.00
2023-06-19T02:40:14.945Z,92809.00
2023-06-19T02:41:15.068Z,92811.00
2023-06-19T02:42:15.208Z,92809.00
2023-06-19T02:43:15.331Z,92811.00
2023-06-19T02:44:15.453Z,92813.00
2023-06-19T02:45:15.581Z,92813.00
2023-06-19T02:46:15.739Z,92815.00
2023-06-19T02:47:15.813Z,92817.00
2023-06-19T02:48:15.926Z,92815.00
2023-06-19T02:49:16.044Z,92815.00
2023-06-19T02:50:16.154Z,92813.00
2023-06-19T02:51:16.250Z,92815.00
2023-06-19T02:52:16.356Z,92809.00
2023-06-19T02:53:16.454Z,92815.00
2023-06-19T02:54:16.549Z,92817.00
2023-06-19T02:55:16.671Z,92815.00
2023-06-19T02:56:16.782Z,92819.00
2023-06-19T02:57:16.904Z,92817.00
2023-06-19T02:58:17.025Z,92819.00
2023-06-19T02:59:17.156Z,92817.00
2023-06-19T03:00:17.279Z,92817.00
2023-06-19T03:01:17.445Z,92821.00
2023-06-19T03:02:17.476Z,92821.00
2023-06-19T03:03:17.680Z,92821.00
2023-06-19T03:04:17.697Z,92821.00
2023-06-19T03:05:17.761Z,92823.00
2023-06-19T03:06:17.888Z,92825.00
2023-06-19T03:07:18.082Z,92827.00
2023-06-19T03:08:18.210Z,92825.00
2023-06-19T03:09:18.342Z,92823.00
2023-06-19T03:10:18.473Z,92821.00
2023-06-19T03:11:18.622Z,92825.00
2023-06-19T03:12:18.724Z,92823.00
2023-06-19T03:13:18.860Z,92825.00
2023-06-19T03:14:19.030Z,92825.00
2023-06-19T03:15:19.056Z,92825.00
2023-06-19T03:16:19.189Z,92827.00
2023-06-19T03:17:19.382Z,92823.00
2023-06-19T03:18:19.381Z,92823.00
2023-06-19T03:19:19.482Z,92829.00
2023-06-19T03:20:19.564Z,92825.00
2023-06-19T03:21:20.394Z,92825.00
2023-06-19T03:22:19.783Z,92825.00
2023-06-19T03:23:20.378Z,92823.00
2023-06-19T03:24:20.012Z,92823.00
2023-06-19T03:25:20.137Z,92827.00
2023-06-19T03:26:20.270Z,92827.00
2023-06-19T03:27:20.391Z,92821.00
2023-06-19T03:28:20.553Z,92823.00
2023-06-19T03:29:20.725Z,92821.00
2023-06-19T03:30:20.935Z,92823.00
2023-06-19T03:31:21.079Z,92825.00
2023-06-19T03:32:21.355Z,92825.00
2023-06-19T03:33:21.417Z,92825.00
2023-06-19T03:34:21.587Z,92827.00
2023-06-19T03:35:21.775Z,92825.00
2023-06-19T03:36:21.934Z,92825.00
2023-06-19T03:37:22.066Z,92827.00
2023-06-19T03:38:22.206Z,92827.00
2023-06-19T03:39:22.363Z,92829.00
2023-06-19T03:40:22.868Z,92827.00
2023-06-19T03:41:22.714Z,92829.00
2023-06-19T03:42:22.865Z,92825.00
2023-06-19T03:43:23.030Z,92827.00
2023-06-19T03:44:23.191Z,92829.00
2023-06-19T03:45:23.312Z,92827.00
2023-06-19T03:46:23.518Z,92840.00
2023-06-19T03:47:23.636Z,92829.00
2023-06-19T03:48:23.774Z,92829.00
2023-06-19T03:49:23.902Z,92831.00
2023-06-19T03:50:26.389Z,92829.00
2023-06-19T03:51:24.135Z,92833.00
2023-06-19T03:52:24.229Z,92829.00
2023-06-19T03:53:24.319Z,92829.00
2023-06-19T03:54:24.403Z,92825.00
2023-06-19T03:55:24.512Z,92833.00
2023-06-19T03:56:24.590Z,92829.00
2023-06-19T03:57:24.692Z,92840.00
2023-06-19T03:58:24.782Z,92840.00
2023-06-19T03:59:24.883Z,92844.00
2023-06-19T04:00:25.250Z,92833.00
2023-06-19T04:01:25.088Z,92829.00
2023-06-19T04:02:25.175Z,92829.00
2023-06-19T04:03:25.301Z,92833.00
2023-06-19T04:04:25.374Z,92833.00
2023-06-19T04:05:25.439Z,92842.00
2023-06-19T04:06:25.562Z,92842.00
2023-06-19T04:07:25.643Z,92842.00
2023-06-19T04:08:25.728Z,92844.00
2023-06-19T04:09:25.835Z,92848.00
2023-06-19T04:10:26.270Z,92842.00
2023-06-19T04:11:26.034Z,92848.00
2023-06-19T04:12:26.131Z,92842.00
2023-06-19T04:13:26.289Z,92846.00
2023-06-19T04:14:26.338Z,92848.00
2023-06-19T04:15:26.481Z,92844.00
2023-06-19T04:16:27.536Z,92850.00
2023-06-19T04:17:26.696Z,92850.00
2023-06-19T04:18:26.790Z,92856.00
2023-06-19T04:19:27.914Z,92856.00
2023-06-19T04:20:27.099Z,92854.00
2023-06-19T04:21:27.128Z,92854.00
2023-06-19T04:22:27.287Z,92856.00
2023-06-19T04:23:27.290Z,92856.00
2023-06-19T04:24:27.936Z,92854.00
2023-06-19T04:25:27.469Z,92848.00
2023-06-19T04:26:27.515Z,92850.00
2023-06-19T04:27:27.586Z,92854.00
2023-06-19T04:28:27.667Z,92852.00
2023-06-19T04:29:27.745Z,92852.00
2023-06-19T04:30:27.972Z,92852.00
2023-06-19T04:31:27.938Z,92848.00
2023-06-19T04:32:28.099Z,92850.00
2023-06-19T04:33:29.122Z,92848.00
2023-06-19T04:34:28.225Z,92846.00
2023-06-19T04:35:28.316Z,92848.00
2023-06-19T04:36:28.407Z,92848.00
2023-06-19T04:37:28.485Z,92850.00
2023-06-19T04:38:28.599Z,92850.00
2023-06-19T04:39:28.624Z,92848.00
2023-06-19T04:40:28.711Z,92846.00
2023-06-19T04:41:28.798Z,92848.00
2023-06-19T04:42:28.867Z,92852.00
2023-06-19T04:43:30.417Z,92852.00
2023-06-19T04:44:29.911Z,92852.00
2023-06-19T04:45:29.103Z,92852.00
2023-06-19T04:46:29.267Z,92850.00
2023-06-19T04:47:39.784Z,92854.00
2023-06-19T04:48:30.493Z,92850.00
2023-06-19T04:49:29.426Z,92858.00
2023-06-19T04:50:29.520Z,92854.00
2023-06-19T04:51:29.616Z,92854.00
2023-06-19T04:52:29.793Z,92854.00
2023-06-19T04:53:29.801Z,92856.00
2023-06-19T04:54:29.909Z,92858.00
2023-06-19T04:55:29.994Z,92860.00
2023-06-19T04:56:30.070Z,92864.00
2023-06-19T04:57:30.183Z,92870.00
2023-06-19T04:58:30.270Z,92870.00
2023-06-19T04:59:30.365Z,92868.00
2023-06-19T05:00:30.465Z,92872.00
2023-06-19T05:01:30.572Z,92866.00
2023-06-19T05:02:30.680Z,92870.00
2023-06-19T05:03:30.764Z,92866.00
2023-06-19T05:04:30.900Z,92866.00
2023-06-19T05:05:30.966Z,92868.00
2023-06-19T05:06:31.050Z,92868.00
2023-06-19T05:07:31.159Z,92870.00
2023-06-19T05:08:31.246Z,92870.00
2023-06-19T05:09:31.917Z,92872.00
2023-06-19T05:10:31.515Z,92875.00
2023-06-19T05:11:31.632Z,92875.00
2023-06-19T05:12:31.761Z,92875.00
2023-06-19T05:13:31.896Z,92872.00
2023-06-19T05:14:32.017Z,92875.00
2023-06-19T05:15:32.145Z,92879.00
2023-06-19T05:16:34.401Z,92877.00
2023-06-19T05:17:32.409Z,92879.00
2023-06-19T05:18:32.408Z,92881.00
2023-06-19T05:19:32.467Z,92875.00
2023-06-19T05:20:32.535Z,92870.00
2023-06-19T05:21:32.608Z,92870.00
2023-06-19T05:22:32.670Z,92875.00
2023-06-19T05:23:32.724Z,92868.00
2023-06-19T05:24:32.832Z,92864.00
2023-06-19T05:25:32.851Z,92868.00
2023-06-19T05:26:32.917Z,92864.00
2023-06-19T05:27:32.976Z,92864.00
2023-06-19T05:28:33.036Z,92864.00
2023-06-19T05:29:33.083Z,92860.00
2023-06-19T05:30:33.233Z,92858.00
2023-06-19T05:31:33.203Z,92856.00
2023-06-19T05:32:33.331Z,92858.00
2023-06-19T05:33:33.310Z,92860.00
2023-06-19T05:34:33.357Z,92856.00
2023-06-19T05:35:33.419Z,92854.00
2023-06-19T05:36:33.472Z,92854.00
2023-06-19T05:37:33.507Z,92858.00
2023-06-19T05:38:33.546Z,92860.00
2023-06-19T05:39:33.585Z,92858.00
2023-06-19T05:40:33.628Z,92852.00
2023-06-19T05:41:33.692Z,92850.00
2023-06-19T05:42:33.843Z,92856.00
2023-06-19T05:43:34.948Z,92856.00
2023-06-19T05:44:34.063Z,92858.00
2023-06-19T05:45:34.147Z,92864.00
2023-06-19T05:46:34.240Z,92860.00
2023-06-19T05:47:34.363Z,92866.00
2023-06-19T05:48:34.432Z,92864.00
2023-06-19T05:49:34.531Z,92870.00
2023-06-19T05:50:34.608Z,92866.00
2023-06-19T05:51:34.683Z,92866.00
2023-06-19T05:52:34.765Z,92862.00
2023-06-19T05:53:34.844Z,92862.00
2023-06-19T05:54:34.957Z,92866.00
2023-06-19T05:55:35.068Z,92864.00
2023-06-19T05:56:35.128Z,92868.00
2023-06-19T05:57:35.289Z,92862.00
2023-06-19T05:58:35.298Z,92862.00
2023-06-19T05:59:35.455Z,92862.00
2023-06-19T06:00:35.609Z,92860.00
2023-06-19T06:01:35.574Z,92862.00
2023-06-19T06:02:35.714Z,92864.00
2023-06-19T06:03:35.792Z,92862.00
2023-06-19T06:04:36.020Z,92864.00
2023-06-19T06:05:35.960Z,92864.00
2023-06-19T06:06:36.034Z,92862.00
2023-06-19T06:07:36.558Z,92862.00
2023-06-19T06:08:36.165Z,92860.00
2023-06-19T06:09:36.258Z,92862.00
2023-06-19T06:10:36.377Z,92860.00
2023-06-19T06:11:36.530Z,92858.00
2023-06-19T06:12:36.939Z,92856.00
2023-06-19T06:13:36.799Z,92858.00
2023-06-19T06:14:37.449Z,92858.00
2023-06-19T06:15:36.909Z,92860.00
2023-06-19T06:16:37.032Z,92862.00
2023-06-19T06:17:37.113Z,92862.00
2023-06-19T06:18:37.176Z,92864.00
2023-06-19T06:19:37.360Z,92862.00
2023-06-19T06:20:37.395Z,92866.00
2023-06-19T06:21:37.516Z,92860.00
2023-06-19T06:22:37.698Z,92860.00
2023-06-19T06:23:37.778Z,92864.00
2023-06-19T06:24:37.921Z,92862.00
2023-06-19T06:25:37.982Z,92862.00
2023-06-19T06:26:38.986Z,92868.00
2023-06-19T06:27:38.132Z,92866.00
2023-06-19T06:28:38.189Z,92866.00
2023-06-19T06:29:39.331Z,92864.00
2023-06-19T06:30:38.441Z,92866.00
2023-06-19T06:31:38.509Z,92868.00
2023-06-19T06:32:38.597Z,92868.00
2023-06-19T06:33:38.683Z,92866.00
2023-06-19T06:34:38.899Z,92868.00
2023-06-19T06:35:39.086Z,92868.00
2023-06-19T06:36:46.389Z,92866.00
2023-06-19T06:37:40.286Z,92860.00
2023-06-19T06:38:39.323Z,92866.00
2023-06-19T06:39:39.345Z,92866.00
2023-06-19T06:40:39.456Z,92868.00
2023-06-19T06:41:39.420Z,92864.00
2023-06-19T06:42:39.450Z,92870.00
2023-06-19T06:43:39.481Z,92868.00
2023-06-19T06:44:39.523Z,92866.00
2023-06-19T06:45:39.660Z,92866.00
2023-06-19T06:46:39.592Z,92868.00
2023-06-19T06:47:39.692Z,92870.00
2023-06-19T06:48:39.760Z,92868.00
2023-06-19T06:49:39.852Z,92872.00
2023-06-19T06:50:39.933Z,92870.00
2023-06-19T06:51:40.017Z,92866.00
2023-06-19T06:52:40.086Z,92868.00
2023-06-19T06:53:40.959Z,92866.00
2023-06-19T06:54:40.320Z,92860.00
2023-06-19T06:55:40.343Z,92856.00
2023-06-19T06:56:40.421Z,92858.00
2023-06-19T06:57:40.477Z,92852.00
2023-06-19T06:58:40.551Z,92854.00
2023-06-19T06:59:40.594Z,92856.00
2023-06-19T07:00:40.664Z,92852.00
2023-06-19T07:01:40.713Z,92854.00
2023-06-19T07:02:40.899Z,92850.00
2023-06-19T07:03:40.886Z,92850.00
2023-06-19T07:04:40.854Z,92852.00
2023-06-19T07:05:40.914Z,92850.00
2023-06-19T07:06:40.951Z,92850.00
2023-06-19T07:07:41.028Z,92850.00
2023-06-19T07:08:41.065Z,92852.00
2023-06-19T07:09:41.182Z,92850.00
2023-06-19T07:10:41.147Z,92850.00
2023-06-19T07:11:41.207Z,92852.00
2023-06-19T07:12:41.264Z,92850.00
2023-06-19T07:13:41.379Z,92848.00
2023-06-19T07:14:41.383Z,92848.00
2023-06-19T07:15:41.435Z,92846.00
2023-06-19T07:16:41.522Z,92848.00
2023-06-19T07:17:41.671Z,92842.00
2023-06-19T07:18:41.581Z,92842.00
2023-06-19T07:19:41.612Z,92840.00
2023-06-19T07:20:41.676Z,92833.00
2023-06-19T07:21:41.760Z,92833.00
2023-06-19T07:22:41.829Z,92831.00
2023-06-19T07:23:42.480Z,92827.00
2023-06-19T07:24:42.061Z,92829.00
2023-06-19T07:25:41.989Z,92829.00
2023-06-19T07:26:42.027Z,92825.00
2023-06-19T07:27:42.108Z,92823.00
2023-06-19T07:28:42.186Z,92827.00
2023-06-19T07:29:42.170Z,92829.00
2023-06-19T07:30:42.184Z,92825.00
2023-06-19T07:31:42.198Z,92825.00
2023-06-19T07:32:42.260Z,92825.00
2023-06-19T07:33:42.234Z,92827.00
2023-06-19T07:34:42.273Z,92827.00
2023-06-19T07:35:42.343Z,92827.00
2023-06-19T07:36:42.310Z,92825.00
2023-06-19T07:37:42.381Z,92825.00
2023-06-19T07:38:42.508Z,92825.00
2023-06-19T07:39:42.495Z,92823.00
2023-06-19T07:40:42.571Z,92823.00
2023-06-19T07:41:42.582Z,92819.00
2023-06-19T07:42:44.583Z,92815.00
2023-06-19T07:43:42.737Z,92815.00
2023-06-19T07:44:42.755Z,92813.00
2023-06-19T07:45:42.839Z,92811.00
2023-06-19T07:46:42.865Z,92807.00
2023-06-19T07:47:42.960Z,92805.00
2023-06-19T07:48:42.949Z,92809.00
2023-06-19T07:49:43.120Z,92801.00
2023-06-19T07:50:43.049Z,92799.00
2023-06-19T07:51:43.142Z,92801.00
2023-06-19T07:52:43.184Z,92797.00
2023-06-19T07:53:43.224Z,92797.00
2023-06-19T07:54:43.361Z,92801.00
2023-06-19T07:55:43.234Z,92797.00
2023-06-19T07:56:43.261Z,92795.00
2023-06-19T07:57:43.301Z,92795.00
2023-06-19T07:58:43.311Z,92795.00
2023-06-19T07:59:43.474Z,92793.00
2023-06-19T08:00:43.341Z,92791.00
2023-06-19T08:01:43.378Z,92793.00
2023-06-19T08:02:43.459Z,92791.00
2023-06-19T08:03:43.446Z,92789.00
2023-06-19T08:04:43.447Z,92793.00
2023-06-19T08:05:43.438Z,92787.00
2023-06-19T08:06:43.467Z,92787.00
2023-06-19T08:07:43.485Z,92784.00
2023-06-19T08:08:43.493Z,92786.00
2023-06-19T08:09:43.507Z,92784.00
2023-06-19T08:10:43.550Z,92786.00
2023-06-19T08:11:43.554Z,92786.00
2023-06-19T08:12:43.999Z,92784.00
2023-06-19T08:13:43.556Z,92787.00
2023-06-19T08:14:43.677Z,92784.00
2023-06-19T08:15:44.455Z,92784.00
2023-06-19T08:16:43.662Z,92782.00
2023-06-19T08:17:43.672Z,92780.00
2023-06-19T08:18:43.679Z,92778.00
2023-06-19T08:19:43.614Z,92778.00
2023-06-19T08:20:43.611Z,92778.00
2023-06-19T08:21:43.582Z,92780.00
2023-06-19T08:22:43.570Z,92778.00
2023-06-19T08:23:43.547Z,92776.00
2023-06-19T08:24:43.568Z,92776.00
2023-06-19T08:25:43.529Z,92776.00
2023-06-19T08:26:43.551Z,92772.00
2023-06-19T08:27:43.472Z,92772.00
2023-06-19T08:28:43.450Z,92766.00
2023-06-19T08:29:43.444Z,92766.00
2023-06-19T08:30:43.441Z,92762.00
2023-06-19T08:31:43.466Z,92756.00
2023-06-19T08:32:43.530Z,92758.00
2023-06-19T08:33:44.423Z,92760.00
2023-06-19T08:34:43.589Z,92758.00
2023-06-19T08:35:43.548Z,92756.00
2023-06-19T08:36:44.508Z,92754.00
2023-06-19T08:37:43.595Z,92750.00
2023-06-19T08:38:44.418Z,92752.00
2023-06-19T08:39:43.636Z,92750.00
2023-06-19T08:40:43.658Z,92746.00
2023-06-19T08:41:43.759Z,92746.00
2023-06-19T08:42:43.710Z,92744.00
2023-06-19T08:43:43.712Z,92742.00
2023-06-19T08:44:43.719Z,92742.00
2023-06-19T08:45:43.784Z,92742.00
2023-06-19T08:46:43.783Z,92739.00
2023-06-19T08:47:43.790Z,92740.00
2023-06-19T08:48:43.786Z,92737.00
2023-06-19T08:49:43.817Z,92737.00
2023-06-19T08:50:44.770Z,92733.00
2023-06-19T08:51:43.754Z,92731.00
2023-06-19T08:52:43.725Z,92731.00
2023-06-19T08:53:43.710Z,92733.00
2023-06-19T08:54:43.684Z,92733.00
2023-06-19T08:55:44.015Z,92731.00
2023-06-19T08:56:43.637Z,92729.00
2023-06-19T08:57:43.615Z,92729.00
2023-06-19T08:58:43.562Z,92723.00
2023-06-19T08:59:43.564Z,92725.00
2023-06-19T09:00:43.573Z,92719.00
2023-06-19T09:01:43.570Z,92717.00
2023-06-19T09:02:43.675Z,92715.00
2023-06-19T09:03:43.676Z,92717.00
2023-06-19T09:04:43.613Z,92719.00
2023-06-19T09:05:46.772Z,92715.00
2023-06-19T09:06:43.652Z,92717.00
2023-06-19T09:07:43.538Z,92717.00
2023-06-19T09:08:43.491Z,92715.00
2023-06-19T09:09:43.449Z,92707.00
2023-06-19T09:10:43.401Z,92705.00
2023-06-19T09:11:43.351Z,92705.00
2023-06-19T09:12:43.387Z,92701.00
2023-06-19T09:13:43.269Z,92699.00
2023-06-19T09:14:43.224Z,92697.00
2023-06-19T09:15:43.172Z,92697.00
2023-06-19T09:16:43.140Z,92695.00
2023-06-19T09:17:43.150Z,92695.00
2023-06-19T09:18:43.059Z,92697.00
2023-06-19T09:19:43.004Z,92693.00
2023-06-19T09:20:43.026Z,92693.00
2023-06-19T09:21:44.021Z,92691.00
2023-06-19T09:22:42.859Z,92693.00
2023-06-19T09:23:42.822Z,92691.00
2023-06-19T09:24:42.916Z,92691.00
2023-06-19T09:25:42.920Z,92691.00
2023-06-19T09:26:42.726Z,92693.00
2023-06-19T09:27:42.757Z,92689.00
2023-06-19T09:28:42.802Z,92687.00
2023-06-19T09:29:42.827Z,92689.00
2023-06-19T09:30:42.805Z,92689.00
2023-06-19T09:31:42.812Z,92689.00
2023-06-19T09:32:42.880Z,92685.00
2023-06-19T09:33:42.861Z,92685.00
2023-06-19T09:34:42.726Z,92684.00
2023-06-19T09:35:42.690Z,92682.00
2023-06-19T09:36:42.668Z,92682.00
2023-06-19T09:37:42.677Z,92682.00
2023-06-19T09:38:42.636Z,92680.00
2023-06-19T09:39:42.596Z,92682.00
2023-06-19T09:40:42.552Z,92682.00
2023-06-19T09:41:42.677Z,92680.00
2023-06-19T09:42:42.491Z,92684.00
2023-06-19T09:43:42.469Z,92685.00
2023-06-19T09:44:46.103Z,92682.00
2023-06-19T09:45:43.045Z,92680.00
2023-06-19T09:46:42.331Z,92676.00
2023-06-19T09:47:42.324Z,92670.00
2023-06-19T09:48:42.178Z,92670.00
2023-06-19T09:49:42.109Z,92668.00
2023-06-19T09:50:42.043Z,92668.00
2023-06-19T09:51:41.974Z,92668.00
2023-06-19T09:52:41.909Z,92664.00
2023-06-19T09:53:41.890Z,92664.00
2023-06-19T09:54:41.770Z,92664.00
2023-06-19T09:55:41.722Z,92666.00
2023-06-19T09:56:41.661Z,92662.00
2023-06-19T09:57:41.623Z,92662.00
2023-06-19T09:58:41.535Z,92662.00
2023-06-19T09:59:41.502Z,92662.00
2023-06-19T10:00:41.417Z,92662.00
2023-06-19T10:01:41.339Z,92656.00
2023-06-19T10:02:41.354Z,92654.00
2023-06-19T10:03:41.300Z,92652.00
2023-06-19T10:04:41.159Z,92656.00
2023-06-19T10:05:41.095Z,92652.00
2023-06-19T10:06:41.030Z,92650.00
2023-06-19T10:07:40.983Z,92650.00
2023-06-19T10:08:40.922Z,92650.00
2023-06-19T10:09:40.988Z,92648.00
2023-06-19T10:10:40.762Z,92646.00
2023-06-19T10:11:40.686Z,92646.00
2023-06-19T10:12:40.616Z,92644.00
2023-06-19T10:13:40.585Z,92644.00
2023-06-19T10:14:40.480Z,92646.00
2023-06-19T10:15:40.485Z,92648.00
2023-06-19T10:16:40.405Z,92648.00
2023-06-19T10:17:40.277Z,92644.00
2023-06-19T10:18:40.157Z,92642.00
2023-06-19T10:19:40.078Z,92642.00
2023-06-19T10:20:46.371Z,92642.00
2023-06-19T10:21:40.994Z,92640.00
2023-06-19T10:22:39.884Z,92638.00
2023-06-19T10:23:39.882Z,92637.00
2023-06-19T10:24:39.843Z,92635.00
2023-06-19T10:25:39.683Z,92633.00
2023-06-19T10:26:39.591Z,92635.00
2023-06-19T10:27:39.536Z,92633.00
2023-06-19T10:28:39.437Z,92631.00
2023-06-19T10:29:39.424Z,92631.00
2023-06-19T10:30:39.324Z,92625.00
2023-06-19T10:31:39.188Z,92625.00
2023-06-19T10:32:39.125Z,92623.00
2023-06-19T10:33:39.016Z,92621.00
2023-06-19T10:34:39.573Z,92621.00
2023-06-19T10:35:38.842Z,92625.00
2023-06-19T10:36:38.758Z,92625.00
2023-06-19T10:37:38.753Z,92619.00
2023-06-19T10:38:38.634Z,92619.00
2023-06-19T10:39:38.574Z,92621.00
2023-06-19T10:40:38.553Z,92617.00
2023-06-19T10:41:38.524Z,92615.00
2023-06-19T10:42:38.484Z,92613.00
2023-06-19T10:43:38.981Z,92613.00
2023-06-19T10:44:38.442Z,92611.00
2023-06-19T10:45:38.453Z,92603.00
2023-06-19T10:46:38.413Z,92607.00
2023-06-19T10:47:38.353Z,92607.00
2023-06-19T10:48:38.445Z,92605.00
2023-06-19T10:49:38.314Z,92601.00
2023-06-19T10:50:38.257Z,92597.00
2023-06-19T10:51:38.219Z,92597.00
2023-06-19T10:52:38.274Z,92593.00
2023-06-19T10:53:38.146Z,92593.00
2023-06-19T10:54:38.108Z,92593.00
2023-06-19T10:55:38.057Z,92591.00
2023-06-19T10:56:38.019Z,92590.00
2023-06-19T10:57:38.008Z,92590.00
2023-06-19T10:58:37.910Z,92588.00
2023-06-19T10:59:37.850Z,92588.00
2023-06-19T11:00:37.791Z,92588.00
2023-06-19T11:01:37.819Z,92588.00
2023-06-19T11:02:37.839Z,92584.00
2023-06-19T11:03:37.712Z,92576.00
2023-06-19T11:04:37.648Z,92584.00
2023-06-19T11:05:37.621Z,92586.00
2023-06-19T11:06:37.584Z,92584.00
2023-06-19T11:07:37.525Z,92574.00
2023-06-19T11:08:37.502Z,92572.00
2023-06-19T11:09:37.471Z,92570.00
2023-06-19T11:10:37.432Z,92570.00
2023-06-19T11:11:37.385Z,92572.00
2023-06-19T11:12:37.360Z,92572.00
2023-06-19T11:13:37.323Z,92566.00
2023-06-19T11:14:37.309Z,92564.00
2023-06-19T11:15:37.280Z,92564.00
2023-06-19T11:16:37.277Z,92562.00
2023-06-19T11:17:37.215Z,92560.00
2023-06-19T11:18:37.148Z,92558.00
2023-06-19T11:19:37.113Z,92564.00
2023-06-19T11:20:37.129Z,92564.00
2023-06-19T11:21:37.025Z,92562.00
2023-06-19T11:22:36.991Z,92558.00
2023-06-19T11:23:37.048Z,92556.00
2023-06-19T11:24:36.982Z,92554.00
2023-06-19T11:25:36.839Z,92554.00
2023-06-19T11:26:36.792Z,92556.00
2023-06-19T11:27:36.858Z,92556.00
2023-06-19T11:28:37.581Z,92558.00
2023-06-19T11:29:36.661Z,92554.00
2023-06-19T11:30:37.594Z,92552.00
2023-06-19T11:31:36.493Z,92552.00
2023-06-19T11:32:36.471Z,92554.00
2023-06-19T11:33:36.329Z,92554.00
2023-06-19T11:34:36.227Z,92552.00
2023-06-19T11:35:36.145Z,92550.00
2023-06-19T11:36:36.071Z,92552.00
2023-06-19T11:37:36.009Z,92552.00
2023-06-19T11:38:35.909Z,92552.00
2023-06-19T11:39:35.832Z,92554.00
2023-06-19T11:40:35.776Z,92550.00
2023-06-19T11:41:35.755Z,92548.00
2023-06-19T11:42:35.744Z,92548.00
2023-06-19T11:43:35.691Z,92546.00
2023-06-19T11:44:36.814Z,92548.00
2023-06-19T11:45:35.584Z,92548.00